createdAt,value
2019-02-11T00:02:20.553Z,17.57
2019-02-11T00:04:50.943Z,17.40
2019-02-11T00:07:21.259Z,18.30
2019-02-11T00:09:51.547Z,17.35
2019-02-11T00:12:21.925Z,18.37
2019-02-11T00:14:52.215Z,18.23
2019-02-11T00:17:23.031Z,17.77
2019-02-11T00:19:53.365Z,17.70
2019-02-11T00:22:23.612Z,17.45
2019-02-11T00:24:53.969Z,16.67
2019-02-11T00:27:25.299Z,16.57
2019-02-11T00:29:55.939Z,17.70
2019-02-11T00:32:26.292Z,17.45
2019-02-11T00:34:56.628Z,16.87
2019-02-11T00:37:26.901Z,16.65
2019-02-11T00:39:57.218Z,15.75
2019-02-11T00:42:27.665Z,16.50
2019-02-11T00:44:59.515Z,16.23
2019-02-11T00:47:29.936Z,15.85
2019-02-11T00:50:00.342Z,16.02
2019-02-11T00:52:30.681Z,15.75
2019-02-11T00:55:00.998Z,15.70
2019-02-11T00:57:32.327Z,15.65
2019-02-11T01:00:02.594Z,15.90
2019-02-11T01:02:32.948Z,16.05
2019-02-11T01:05:03.456Z,16.45
2019-02-11T01:07:33.755Z,15.23
2019-02-11T01:10:05.427Z,16.90
2019-02-11T01:12:36.242Z,15.00
2019-02-11T01:15:07.165Z,15.28
2019-02-11T01:17:37.555Z,14.18
2019-02-11T01:20:09.952Z,13.93
2019-02-11T01:22:40.273Z,14.65
2019-02-11T01:25:10.669Z,14.58
2019-02-11T01:27:41.002Z,14.05
2019-02-11T01:30:12.618Z,14.43
2019-02-11T01:32:42.967Z,13.80
2019-02-11T01:35:13.322Z,13.75
2019-02-11T01:37:43.703Z,13.35
2019-02-11T01:40:13.965Z,15.00
2019-02-11T01:42:44.617Z,13.78
2019-02-11T01:45:14.984Z,14.18
2019-02-11T01:47:45.218Z,13.95
2019-02-11T01:50:15.604Z,13.30
2019-02-11T01:52:45.862Z,13.18
2019-02-11T01:55:16.170Z,13.28
2019-02-11T01:57:46.464Z,13.70
2019-02-11T02:00:16.771Z,13.18
2019-02-11T02:02:48.918Z,12.50
2019-02-11T02:05:19.173Z,12.10
2019-02-11T02:07:49.454Z,12.63
2019-02-11T02:10:19.750Z,11.95
2019-02-11T02:12:52.818Z,12.63
2019-02-11T02:15:23.286Z,12.85
2019-02-11T02:17:53.458Z,12.28
2019-02-11T02:20:23.747Z,11.85
2019-02-11T02:22:53.995Z,11.97
2019-02-11T02:25:25.376Z,12.15
2019-02-11T02:27:57.317Z,11.70
2019-02-11T02:30:27.938Z,12.40
2019-02-11T02:32:58.198Z,11.57
2019-02-11T02:35:28.530Z,11.93
2019-02-11T02:37:58.956Z,12.28
2019-02-11T02:40:29.276Z,12.47
2019-02-11T02:42:59.619Z,11.03
2019-02-11T02:45:29.960Z,11.53
2019-02-11T02:48:00.360Z,11.15
2019-02-11T02:50:30.819Z,10.82
2019-02-11T02:53:02.241Z,11.68
2019-02-11T02:55:40.646Z,11.33
2019-02-11T02:58:11.628Z,11.10
2019-02-11T03:00:42.076Z,10.48
2019-02-11T03:03:12.342Z,11.00
2019-02-11T03:05:42.773Z,10.35
2019-02-11T03:08:13.145Z,10.72
2019-02-11T03:10:44.403Z,10.63
2019-02-11T03:13:14.758Z,10.43
2019-02-11T03:15:48.351Z,10.28
2019-02-11T03:18:20.546Z,10.70
2019-02-11T03:20:50.800Z,9.78
2019-02-11T03:23:21.167Z,10.58
2019-02-11T03:25:51.529Z,10.43
2019-02-11T03:28:21.789Z,10.48
2019-02-11T03:30:52.134Z,10.38
2019-02-11T03:33:22.358Z,10.55
2019-02-11T03:35:52.931Z,9.18
2019-02-11T03:38:23.673Z,10.13
2019-02-11T03:40:55.226Z,9.98
2019-02-11T03:43:25.629Z,10.18
2019-02-11T03:45:55.944Z,10.00
2019-02-11T03:48:26.604Z,9.65
2019-02-11T03:50:56.919Z,9.63
2019-02-11T03:53:27.324Z,10.00
2019-02-11T03:55:58.128Z,9.63
2019-02-11T03:58:28.598Z,9.60
2019-02-11T04:01:00.816Z,9.70
2019-02-11T04:03:31.209Z,9.48
2019-02-11T04:06:01.506Z,9.33
2019-02-11T04:08:31.759Z,8.78
2019-02-11T04:11:02.166Z,8.35
2019-02-11T04:13:32.432Z,8.75
2019-02-11T04:16:04.322Z,8.18
2019-02-11T04:18:34.614Z,8.58
2019-02-11T04:21:04.983Z,8.88
2019-02-11T04:23:35.398Z,8.63
2019-02-11T04:26:09.139Z,9.25
2019-02-11T04:28:39.505Z,8.35
2019-02-11T04:31:10.138Z,8.65
2019-02-11T04:33:40.766Z,9.78
2019-02-11T04:36:10.971Z,9.80
2019-02-11T04:38:41.286Z,9.40
2019-02-11T04:41:11.653Z,8.83
2019-02-11T04:43:42.044Z,10.35
2019-02-11T04:46:12.283Z,8.88
2019-02-11T04:48:42.563Z,8.58
2019-02-11T04:51:12.832Z,8.85
2019-02-11T04:53:43.108Z,8.78
2019-02-11T04:56:13.483Z,8.25
2019-02-11T04:58:43.744Z,9.03
2019-02-11T05:01:14.193Z,9.25
2019-02-11T05:03:44.505Z,9.30
2019-02-11T05:06:14.833Z,10.05
2019-02-11T05:08:45.121Z,10.00
2019-02-11T05:11:16.422Z,9.00
2019-02-11T05:13:46.812Z,9.43
2019-02-11T05:16:17.211Z,10.82
2019-02-11T05:18:47.468Z,10.28
2019-02-11T05:21:17.800Z,9.18
2019-02-11T05:23:48.091Z,10.65
2019-02-11T05:26:18.440Z,9.85
2019-02-11T05:28:48.720Z,9.98
2019-02-11T05:31:19.395Z,9.95
2019-02-11T05:33:52.265Z,9.75
2019-02-11T05:36:22.489Z,10.23
2019-02-11T05:38:52.922Z,9.38
2019-02-11T05:41:23.266Z,10.10
2019-02-11T05:43:53.554Z,10.05
2019-02-11T05:46:23.875Z,10.43
2019-02-11T05:48:54.165Z,9.63
2019-02-11T05:51:24.362Z,10.10
2019-02-11T05:53:54.700Z,10.15
2019-02-11T05:56:25.031Z,10.98
2019-02-11T05:58:55.357Z,9.75
2019-02-11T06:01:25.701Z,9.80
2019-02-11T06:03:57.233Z,10.55
2019-02-11T06:06:27.661Z,10.95
2019-02-11T06:08:58.018Z,10.80
2019-02-11T06:11:28.338Z,10.80
2019-02-11T06:13:58.645Z,10.35
2019-02-11T06:16:29.036Z,11.03
2019-02-11T06:18:59.264Z,10.58
2019-02-11T06:21:29.595Z,11.10
2019-02-11T06:24:00.547Z,11.12
2019-02-11T06:26:32.830Z,10.65
2019-02-11T06:29:03.154Z,10.78
2019-02-11T06:31:33.375Z,11.08
2019-02-11T06:34:03.662Z,11.63
2019-02-11T06:36:33.999Z,11.10
2019-02-11T06:39:04.546Z,11.10
2019-02-11T06:41:34.833Z,11.55
2019-02-11T06:44:06.203Z,12.00
2019-02-11T06:46:36.452Z,11.83
2019-02-11T06:49:06.879Z,10.95
2019-02-11T06:51:37.137Z,11.88
2019-02-11T06:54:07.447Z,11.63
2019-02-11T06:56:37.772Z,12.15
2019-02-11T06:59:08.203Z,11.00
2019-02-11T07:01:38.543Z,12.28
2019-02-11T07:04:08.935Z,12.03
2019-02-11T07:06:39.360Z,11.88
2019-02-11T07:09:09.649Z,12.80
2019-02-11T07:11:39.929Z,11.48
2019-02-11T07:14:10.212Z,12.18
2019-02-11T07:16:40.518Z,12.20
2019-02-11T07:19:10.867Z,11.93
2019-02-11T07:21:41.154Z,11.78
2019-02-11T07:24:11.616Z,11.70
2019-02-11T07:26:42.521Z,11.38
2019-02-11T07:29:12.839Z,11.33
2019-02-11T07:31:43.300Z,11.78
2019-02-11T07:34:13.622Z,12.58
2019-02-11T07:36:44.059Z,12.37
2019-02-11T07:39:14.456Z,11.85
2019-02-11T07:42:04.770Z,11.73
2019-02-11T07:44:41.503Z,12.20
2019-02-11T07:47:11.907Z,12.73
2019-02-11T07:49:42.517Z,12.50
2019-02-11T07:52:12.939Z,12.35
2019-02-11T07:54:43.415Z,12.60
2019-02-11T07:57:13.741Z,12.85
2019-02-11T07:59:44.053Z,12.30
2019-02-11T08:02:14.310Z,12.58
2019-02-11T08:04:44.658Z,12.50
2019-02-11T08:07:15.027Z,12.37
2019-02-11T08:09:45.333Z,11.97
2019-02-11T08:12:15.626Z,13.20
2019-02-11T08:14:46.010Z,12.28
2019-02-11T08:17:16.270Z,11.80
2019-02-11T08:19:46.586Z,12.40
2019-02-11T08:22:16.844Z,12.65
2019-02-11T08:24:47.202Z,12.30
2019-02-11T08:27:17.507Z,13.10
2019-02-11T08:29:47.777Z,12.75
2019-02-11T08:32:18.116Z,12.68
2019-02-11T08:34:48.418Z,12.80
2019-02-11T08:37:19.039Z,13.28
2019-02-11T08:39:49.480Z,12.60
2019-02-11T08:42:19.732Z,11.83
2019-02-11T08:44:50.076Z,13.78
2019-02-11T08:47:20.427Z,13.65
2019-02-11T08:49:50.741Z,12.33
2019-02-11T08:52:21.076Z,13.15
2019-02-11T08:54:51.351Z,12.58
2019-02-11T08:57:21.672Z,13.08
2019-02-11T08:59:52.079Z,12.58
2019-02-11T09:02:22.319Z,13.30
2019-02-11T09:04:52.622Z,13.35
2019-02-11T09:07:22.990Z,13.78
2019-02-11T09:09:53.331Z,12.90
2019-02-11T09:12:24.053Z,13.18
2019-02-11T09:14:54.456Z,12.47
2019-02-11T09:17:24.782Z,12.98
2019-02-11T09:19:55.052Z,13.00
2019-02-11T09:22:26.932Z,13.38
2019-02-11T09:24:57.288Z,14.13
2019-02-11T09:27:27.713Z,12.85
2019-02-11T09:29:58.091Z,13.00
2019-02-11T09:32:28.446Z,13.58
2019-02-11T09:34:58.661Z,13.62
2019-02-11T09:37:28.954Z,13.48
2019-02-11T09:39:59.252Z,13.68
2019-02-11T09:42:29.619Z,13.80
2019-02-11T09:44:59.986Z,13.18
2019-02-11T09:47:30.297Z,13.30
2019-02-11T09:50:21.704Z,13.65
2019-02-11T09:52:52.000Z,13.60
2019-02-11T09:55:27.238Z,14.05
2019-02-11T09:57:57.517Z,14.60
2019-02-11T10:00:28.021Z,14.55
2019-02-11T10:02:58.413Z,14.00
2019-02-11T10:05:28.657Z,13.15
2019-02-11T10:07:58.970Z,13.55
2019-02-11T10:10:30.714Z,14.75
2019-02-11T10:13:02.039Z,12.98
2019-02-11T10:15:32.344Z,13.43
2019-02-11T10:18:02.622Z,14.33
2019-02-11T10:20:33.987Z,13.20
2019-02-11T10:23:04.647Z,13.38
2019-02-11T10:25:35.037Z,13.15
2019-02-11T10:28:08.370Z,13.83
2019-02-11T10:30:38.707Z,13.93
2019-02-11T10:33:09.249Z,13.43
2019-02-11T10:35:42.273Z,14.35
2019-02-11T10:38:11.599Z,13.43
2019-02-11T10:40:41.847Z,14.20
2019-02-11T10:43:12.080Z,14.18
2019-02-11T10:45:44.493Z,14.55
2019-02-11T10:48:14.722Z,13.75
2019-02-11T10:50:44.975Z,14.50
2019-02-11T10:53:15.313Z,13.55
2019-02-11T10:55:45.669Z,13.72
2019-02-11T10:58:15.920Z,13.75
2019-02-11T11:00:48.095Z,12.98
2019-02-11T11:03:18.451Z,14.83
2019-02-11T11:05:50.075Z,13.38
2019-02-11T11:08:19.329Z,14.00
2019-02-11T11:10:48.969Z,13.90
2019-02-11T11:13:19.739Z,14.05
2019-02-11T11:15:49.984Z,13.85
2019-02-11T11:18:20.430Z,14.70
2019-02-11T11:20:50.784Z,13.45
2019-02-11T11:23:21.125Z,13.80
2019-02-11T11:25:52.145Z,13.83
2019-02-11T11:28:22.417Z,13.68
2019-02-11T11:30:52.817Z,14.93
2019-02-11T11:33:24.515Z,14.40
2019-02-11T11:35:55.865Z,12.33
2019-02-11T11:38:26.212Z,13.78
2019-02-11T11:40:56.408Z,13.75
2019-02-11T11:43:27.932Z,14.07
2019-02-11T11:45:58.736Z,14.38
2019-02-11T11:48:29.432Z,14.23
2019-02-11T11:50:59.774Z,13.75
2019-02-11T11:53:30.165Z,15.05
2019-02-11T11:56:02.320Z,15.53
2019-02-11T11:58:32.410Z,13.83
2019-02-11T12:01:02.896Z,14.05
2019-02-11T12:03:33.230Z,13.08
2019-02-11T12:06:03.641Z,13.08
2019-02-11T12:08:34.009Z,12.95
2019-02-11T12:11:06.167Z,14.15
2019-02-11T12:13:36.662Z,13.50
2019-02-11T12:16:07.005Z,14.23
2019-02-11T12:18:37.382Z,14.10
2019-02-11T12:21:07.757Z,14.13
2019-02-11T12:23:38.155Z,14.47
2019-02-11T12:26:08.531Z,14.63
2019-02-11T12:28:40.882Z,14.63
2019-02-11T12:31:11.717Z,14.50
2019-02-11T12:33:42.153Z,13.10
2019-02-11T12:36:12.414Z,13.58
2019-02-11T12:38:42.803Z,14.40
2019-02-11T12:41:13.115Z,15.20
2019-02-11T12:43:43.435Z,14.33
2019-02-11T12:46:13.798Z,15.00
2019-02-11T12:48:44.162Z,14.15
2019-02-11T12:51:14.540Z,14.78
2019-02-11T12:53:44.875Z,14.18
2019-02-11T12:56:15.216Z,14.03
2019-02-11T12:58:45.548Z,14.28
2019-02-11T13:01:15.844Z,13.78
2019-02-11T13:03:46.279Z,14.98
2019-02-11T13:06:16.583Z,14.43
2019-02-11T13:08:46.916Z,15.32
2019-02-11T13:11:17.239Z,14.03
2019-02-11T13:13:48.746Z,13.65
2019-02-11T13:16:19.110Z,13.60
2019-02-11T13:18:49.444Z,15.38
2019-02-11T13:21:19.888Z,14.03
2019-02-11T13:23:51.811Z,15.08
2019-02-11T13:26:22.387Z,15.15
2019-02-11T13:28:52.592Z,14.98
2019-02-11T13:31:23.034Z,14.73
2019-02-11T13:33:53.695Z,14.13
2019-02-11T13:36:24.175Z,14.53
2019-02-11T13:38:55.002Z,15.32
2019-02-11T13:41:29.145Z,14.75
2019-02-11T13:43:59.597Z,14.85
2019-02-11T13:46:29.973Z,14.60
2019-02-11T13:49:00.395Z,15.28
2019-02-11T13:51:31.230Z,15.03
2019-02-11T13:54:03.958Z,15.30
2019-02-11T13:56:36.377Z,14.90
2019-02-11T13:59:07.003Z,15.25
2019-02-11T14:01:37.223Z,14.00
2019-02-11T14:04:07.683Z,15.08
2019-02-11T14:06:37.917Z,15.85
2019-02-11T14:09:13.141Z,15.68
2019-02-11T14:11:43.421Z,15.45
2019-02-11T14:14:14.224Z,15.28
2019-02-11T14:16:44.575Z,13.98
2019-02-11T14:19:15.609Z,14.85
2019-02-11T14:21:46.567Z,15.95
2019-02-11T14:24:16.853Z,15.43
2019-02-11T14:26:49.622Z,16.07
2019-02-11T14:29:19.892Z,14.78
2019-02-11T14:31:50.407Z,14.65
2019-02-11T14:34:20.917Z,15.85
2019-02-11T14:36:51.387Z,15.08
2019-02-11T14:39:22.895Z,15.58
2019-02-11T14:41:53.378Z,15.30
2019-02-11T14:44:24.442Z,15.32
2019-02-11T14:46:56.573Z,15.65
2019-02-11T14:49:27.117Z,15.25
2019-02-11T14:51:57.560Z,14.85
2019-02-11T14:54:27.994Z,15.32
2019-02-11T14:56:58.595Z,15.60
2019-02-11T14:59:29.017Z,16.35
2019-02-11T15:02:01.664Z,16.70
2019-02-11T15:04:32.079Z,15.80
2019-02-11T15:07:03.488Z,15.63
2019-02-11T15:09:33.967Z,15.63
2019-02-11T15:12:04.352Z,15.98
2019-02-11T15:14:34.690Z,16.42
2019-02-11T15:17:05.024Z,15.40
2019-02-11T15:19:35.348Z,16.50
2019-02-11T15:22:05.590Z,15.68
2019-02-11T15:24:35.905Z,16.37
2019-02-11T15:27:06.414Z,16.48
2019-02-11T15:29:36.878Z,16.77
2019-02-11T15:32:07.170Z,16.05
2019-02-11T15:34:37.543Z,16.10
2019-02-11T15:37:07.900Z,15.88
2019-02-11T15:39:38.189Z,16.17
2019-02-11T15:42:08.592Z,15.43
2019-02-11T15:44:39.048Z,15.78
2019-02-11T15:47:09.267Z,16.42
2019-02-11T15:49:39.610Z,15.90
2019-02-11T15:52:10.140Z,15.88
2019-02-11T15:54:41.866Z,15.48
2019-02-11T15:57:12.194Z,16.77
2019-02-11T15:59:42.499Z,16.10
2019-02-11T16:02:12.854Z,17.07
2019-02-11T16:04:43.220Z,17.45
2019-02-11T16:07:14.319Z,19.50
2019-02-11T16:09:44.597Z,17.35
2019-02-11T16:12:14.849Z,19.07
2019-02-11T16:14:45.139Z,19.37
2019-02-11T16:17:15.412Z,21.07
2019-02-11T16:19:45.746Z,20.90
2019-02-11T16:22:16.402Z,20.95
2019-02-11T16:24:47.962Z,21.73
2019-02-11T16:27:18.259Z,21.97
2019-02-11T16:29:49.008Z,21.90
2019-02-11T16:32:19.323Z,23.07
2019-02-11T16:34:49.683Z,22.05
2019-02-11T16:37:20.008Z,21.87
2019-02-11T16:39:50.276Z,22.00
2019-02-11T16:42:20.660Z,20.95
2019-02-11T16:44:50.874Z,19.75
2019-02-11T16:47:21.234Z,19.23
2019-02-11T16:49:51.631Z,20.52
2019-02-11T16:52:22.058Z,19.67
2019-02-11T16:54:52.323Z,19.57
2019-02-11T16:57:22.686Z,19.20
2019-02-11T16:59:53.184Z,18.98
2019-02-11T17:02:23.807Z,19.00
2019-02-11T17:04:57.116Z,18.02
2019-02-11T17:07:28.925Z,17.42
2019-02-11T17:10:00.821Z,18.60
2019-02-11T17:12:31.101Z,16.37
2019-02-11T17:15:01.908Z,16.15
2019-02-11T17:17:32.238Z,15.28
2019-02-11T17:20:03.783Z,16.32
2019-02-11T17:22:34.238Z,14.85
2019-02-11T17:25:04.696Z,14.83
2019-02-11T17:27:35.058Z,14.83
2019-02-11T17:30:06.461Z,14.60
2019-02-11T17:32:37.182Z,14.43
2019-02-11T17:35:08.613Z,14.58
2019-02-11T17:37:39.939Z,13.48
2019-02-11T17:40:11.907Z,13.28
2019-02-11T17:42:43.714Z,13.15
2019-02-11T17:45:16.294Z,12.58
2019-02-11T17:47:46.966Z,12.78
2019-02-11T17:50:17.246Z,11.78
2019-02-11T17:52:47.577Z,12.25
2019-02-11T17:55:17.956Z,12.23
2019-02-11T17:57:48.246Z,11.73
2019-02-11T18:00:27.365Z,12.03
2019-02-11T18:02:57.729Z,11.00
2019-02-11T18:05:28.031Z,11.65
2019-02-11T18:07:58.374Z,10.85
2019-02-11T18:10:28.984Z,10.98
2019-02-11T18:12:59.142Z,11.05
2019-02-11T18:15:29.390Z,10.53
2019-02-11T18:17:59.646Z,10.82
2019-02-11T18:20:29.942Z,9.45
2019-02-11T18:23:02.591Z,10.85
2019-02-11T18:25:32.886Z,9.90
2019-02-11T18:28:03.264Z,9.58
2019-02-11T18:30:33.654Z,9.38
2019-02-11T18:33:04.270Z,8.95
2019-02-11T18:35:37.147Z,9.28
2019-02-11T18:38:07.417Z,9.45
2019-02-11T18:40:37.671Z,8.90
2019-02-11T18:43:07.891Z,8.58
2019-02-11T18:45:38.374Z,8.85
2019-02-11T18:48:08.713Z,8.20
2019-02-11T18:50:39.883Z,7.92
2019-02-11T18:53:10.414Z,8.80
2019-02-11T18:55:40.806Z,8.13
2019-02-11T18:58:11.218Z,7.80
2019-02-11T19:00:41.465Z,8.00
2019-02-11T19:03:12.367Z,8.48
2019-02-11T19:05:42.760Z,7.78
2019-02-11T19:08:13.115Z,7.90
2019-02-11T19:10:43.459Z,7.70
2019-02-11T19:13:13.782Z,8.33
2019-02-11T19:15:44.169Z,7.50
2019-02-11T19:18:14.775Z,7.85
2019-02-11T19:20:48.542Z,7.28
2019-02-11T19:23:19.578Z,6.95
2019-02-11T19:25:50.026Z,6.80
2019-02-11T19:28:20.326Z,7.42
2019-02-11T19:30:50.446Z,6.80
2019-02-11T19:33:24.250Z,7.35
2019-02-11T19:35:55.522Z,7.08
2019-02-11T19:38:25.976Z,7.12
2019-02-11T19:40:57.858Z,7.42
2019-02-11T19:43:28.656Z,6.92
2019-02-11T19:46:00.988Z,6.20
2019-02-11T19:48:31.336Z,6.35
2019-02-11T19:51:03.467Z,6.70
2019-02-11T19:53:34.407Z,6.65
2019-02-11T19:56:06.065Z,7.67
2019-02-11T19:58:36.564Z,6.20
2019-02-11T20:01:06.940Z,6.10
2019-02-11T20:03:37.528Z,6.05
2019-02-11T20:06:08.062Z,6.20
2019-02-11T20:08:38.729Z,6.25
2019-02-11T20:11:11.634Z,6.35
2019-02-11T20:13:42.000Z,6.42
2019-02-11T20:16:12.774Z,6.05
2019-02-11T20:18:43.113Z,6.17
2019-02-11T20:21:14.413Z,6.20
2019-02-11T20:23:44.768Z,6.08
2019-02-11T20:26:16.977Z,5.65
2019-02-11T20:28:47.424Z,6.22
2019-02-11T20:31:17.802Z,5.70
2019-02-11T20:33:48.041Z,5.80
2019-02-11T20:36:22.255Z,6.03
2019-02-11T20:38:52.585Z,5.47
2019-02-11T20:41:23.392Z,5.45
2019-02-11T20:43:54.160Z,5.58
2019-02-11T20:46:25.156Z,5.30
2019-02-11T20:48:55.592Z,6.28
2019-02-11T20:51:26.154Z,5.22
2019-02-11T20:53:56.903Z,5.83
2019-02-11T20:56:27.158Z,5.28
2019-02-11T20:59:00.337Z,5.53
2019-02-11T21:01:30.601Z,4.62
2019-02-11T21:04:01.284Z,5.62
2019-02-11T21:06:31.872Z,5.33
2019-02-11T21:09:02.236Z,5.25
2019-02-11T21:11:34.412Z,4.75
2019-02-11T21:14:05.698Z,4.90
2019-02-11T21:16:36.039Z,4.85
2019-02-11T21:19:06.301Z,4.80
2019-02-11T21:21:36.601Z,4.78
2019-02-11T21:24:06.917Z,5.20
2019-02-11T21:26:37.292Z,6.62
2019-02-11T21:29:07.697Z,4.60
2019-02-11T21:31:38.036Z,5.05
2019-02-11T21:34:08.316Z,5.00
2019-02-11T21:36:39.487Z,4.17
2019-02-11T21:39:10.291Z,4.30
2019-02-11T21:41:40.575Z,4.75
2019-02-11T21:44:10.870Z,4.35
2019-02-11T21:46:41.232Z,4.33
2019-02-11T21:49:11.541Z,4.67
2019-02-11T21:51:41.806Z,4.55
2019-02-11T21:54:12.128Z,5.22
2019-02-11T21:56:42.481Z,4.60
2019-02-11T21:59:12.953Z,4.25
2019-02-11T22:01:43.442Z,4.03
2019-02-11T22:04:13.813Z,4.72
2019-02-11T22:06:45.104Z,4.30
2019-02-11T22:09:15.433Z,4.85
2019-02-11T22:11:45.763Z,4.65
2019-02-11T22:14:16.108Z,4.40
2019-02-11T22:16:46.316Z,4.15
2019-02-11T22:19:16.620Z,6.00
2019-02-11T22:21:46.902Z,4.75
2019-02-11T22:24:17.251Z,4.12
2019-02-11T22:26:47.600Z,4.60
2019-02-11T22:29:18.029Z,4.30
2019-02-11T22:31:48.357Z,4.37
2019-02-11T22:34:18.722Z,4.05
2019-02-11T22:36:49.057Z,3.87
2019-02-11T22:39:19.367Z,4.08
2019-02-11T22:41:49.644Z,4.08
2019-02-11T22:44:19.950Z,3.72
2019-02-11T22:46:50.164Z,4.70
2019-02-11T22:49:20.441Z,4.40
2019-02-11T22:51:50.658Z,4.15
2019-02-11T22:54:20.967Z,4.17
2019-02-11T22:56:51.314Z,4.28
2019-02-11T22:59:21.623Z,3.70
2019-02-11T23:01:52.001Z,4.05
2019-02-11T23:04:22.322Z,3.60
2019-02-11T23:06:52.617Z,4.20
2019-02-11T23:09:22.960Z,3.70
2019-02-11T23:11:53.365Z,4.00
2019-02-11T23:14:23.701Z,4.05
2019-02-11T23:16:53.956Z,3.72
2019-02-11T23:19:24.353Z,3.58
2019-02-11T23:21:54.653Z,3.90
2019-02-11T23:24:24.893Z,3.90
2019-02-11T23:26:55.188Z,3.72
2019-02-11T23:29:25.507Z,3.65
2019-02-11T23:31:55.825Z,4.00
2019-02-11T23:34:26.076Z,3.17
2019-02-11T23:36:56.375Z,3.50
2019-02-11T23:39:26.626Z,3.37
2019-02-11T23:41:56.977Z,3.25
2019-02-11T23:44:27.349Z,3.50
2019-02-11T23:46:57.677Z,3.52
2019-02-11T23:49:30.069Z,3.30
2019-02-11T23:52:00.337Z,3.58
2019-02-11T23:54:31.775Z,11.53
2019-02-11T23:57:02.049Z,3.10
2019-02-11T23:59:32.523Z,3.40
